Detall de PIREP

Printer-friendly versionPDF version

[2009/11/06 22:32:00]
Flight IATA:CT2305
Pilot Number:026
Company ICAO:CAT
Aircraft Type:DC85/A
PAX:136
Departing Airport: LIBC
Destination Airport: LIEA
Alternate Airport:LIEO
Online: VATSIM
Route:SOMAS UM601 ALG
Flight Level:FL340
No Slew and time accel
No pause
Crash detect
Detect pilot in Cockpit between each 30 and 45 minutes
22:32 Zero fuel Weight: 185226 Lbs, Fuel Weight: 27945 Lbs
22:32 VATSIM:LIBC 062050Z 23009KT 9999 SCT030 15/12 Q1006 RMK VIS MIN 9999
22:32 VATSIM:LIEA 062150Z VRB03KT 9999 FEW018 09/07 Q1010
22:32 VOICE CATALONIAN
22:33 Parking Brakes off
22:38 Take-off
22:38 Take off Weight: 212184 Lbs
22:38 Wind: 228º @ 009 Knots Heading: 171º
22:38 POS N38º 59´ 23´´ E017º 04´ 54´´
22:38 Flaps:3 at 168 Knots
22:38 Gear Up: 168 Knots
22:39 Flaps:2 at 129 Knots
22:40 Flaps:1 at 165 Knots
22:42 Flaps:0 at 185 Knots
22:53 Wind:260º@025 Knots Heading:
311º Ground Speed: 361 Knots Altitude 33415 ft
22:53 TOC
22:53 Fuel Weight: 22414 Lb
22:57 TOD
22:57 Fuel Weight: 21767 Lb
22:58 TOC
22:58 Fuel Weight: 21466 Lb
23:08 Wind:232º@013 Knots Heading: 279º Ground Speed: 472 Knots Altitude 33838 ft
23:23 Wind:268º@008 Knots Heading: 282º Ground Speed: 471 Knots Altitude 33848 ft
23:28 TOD
23:28 Fuel Weight: 14696 Lb
23:38 Wind:239º@015 Knots Heading: 284º Ground Speed: 393 Knots Altitude 15403 ft
23:47 Flaps:1 at 219 Knots
23:49 Gear Down: 205 Knots
23:50 Flaps:2 at 164 Knots
23:50 Flaps:3 at 165 Knots
23:51 Flaps:4 at 162 Knots
23:51 Flaps:3 at 166 Knots
23:51 Flaps:2 at 172 Knots
23:52 Flaps:1 at 186 Knots
23:52 Gear Up: 187 Knots
23:52 Flaps:0 at 194 Knots
23:53 Wind:266º@005 Knots Heading: 237º Ground Speed: 227 Knots Altitude 3533 ft
00:01 Flaps:1 at 227 Knots
00:01 Gear Down: 227 Knots
00:02 Flaps:2 at
208 Knots
00:02 Flaps:3 at 189 Knots
00:03 Flaps:4 at 165 Knots
00:03 Flaps:5 at 170 Knots
00:04 TouchDown:Rate -416 ft/min Speed: 130 Knots
00:04 VATSIM:LIEA 062320Z VRB02KT 9999 FEW018 08/06 Q1010
00:04 Land
00:04 Wind:110º@004 Knots
00:04 Heading: 202º
00:04 Flight Duration: 01:26
00:04 Landing Weight: 195296 Lbs
00:04 POS N40º 37´ 49´´ E008º 17´ 23´´
00:08 Parking brakes on
00:08 Block to Block Duration: 01:35
00:08 Final Fuel: 9711 Lbls
00:08 Spent Fuel: 18234 Lbls
00:08 Flight Length: 518 NM
00:08 TOD Land Length: 179 NM

Exportar CSV

Powered by Drupal - Modified by Danger4k